« Back
NWS Peachtree City, Ga » Text Product » CSG Terminal Aerodrome Forecast


Printer-friendly Version
Current Version              Previous Versions:   1  2  3  4  5  6  7  8  9  

Terminal Aerodrome Forecast

311
FTUS42 KFFC 200000 CCA
TAFCSG
TAF COR
KCSG 200006Z 2000/2024 24007KT P6SM SCT040 SCT080
     FM200700 VRB03KT 4SM BR SCT012
     FM201400 29007KT P6SM SCT040
     FM201700 28010KT P6SM SCT045 PROB30 2018/2022 4SM -TSRA
      BKN030CB=

USA.gov is the U.S. government's official web portal to all federal, state and local government web resources and services.